Latest Weather Observations for Penrith

IDN60801

Issued at 9:03 am EST Friday 1 July 2016 (issued every 30 minutes, with the page automatically refreshed every 10 minutes)

About weather observations | Map of weather stations | Latest weather observations for NSW | Other Formats
Station Details ID: 067113 Name: PENRITH LAKES AWS Lat: -33.72 Lon: 150.68 Height: 24.7 m
Data from the previous 72 hours. | See also: Recent months at Penrith
Date/Time
EST
Temp
°C
App
Temp
°C
Dew
Point
°C
Rel
Hum
%
Delta-T
°C
Wind Press
QNH
hPa
Press
MSL
hPa
Rain since
9am
mm
Dir  Spd
km/h
Gust
km/h
Spd
kts
Gust
kts
01/09:00am 12.2 9.2 1.8 49 4.5 N 7 19 4 10 - - 0.0
01/08:30am 11.2 8.6 3.0 57 3.6 ESE 6 7 3 4 - - 0.0
01/08:00am 10.1 7.3 2.0 57 3.4 WNW 6 9 3 5 - - 0.0
01/07:30am 9.1 6.1 2.2 62 2.9 ESE 7 13 4 7 - - 0.0
01/07:00am 9.8 5.6 1.9 58 3.3 WNW 13 20 7 11 - - 0.0
01/06:30am 9.6 5.5 2.0 59 3.2 WNW 13 19 7 10 - - 0.0
01/06:00am 9.4 5.7 2.5 62 2.9 WNW 11 17 6 9 - - 0.0
01/05:30am 10.8 7.9 2.4 56 3.6 SW 7 19 4 10 - - 0.0
01/05:00am 10.8 8.5 2.9 58 3.4 WNW 4 11 2 6 - - 0.0
01/04:30am 10.6 7.8 3.4 61 3.1 NW 7 11 4 6 - - 0.0
01/04:00am 11.3 8.4 4.5 63 3.1 W 9 17 5 9 - - 0.0
01/03:30am 10.9 7.9 6.1 72 2.2 W 11 20 6 11 - - 0.0
01/03:00am 7.9 6.0 5.0 82 1.3 NW 4 9 2 5 - - 0.0
01/02:30am 8.7 6.2 4.7 76 1.8 NE 7 17 4 9 - - 0.0
01/02:00am 8.4 6.0 4.2 75 1.8 NNE 6 7 3 4 - - 0.0
01/01:30am 8.5 5.6 4.7 77 1.7 NE 9 11 5 6 - - 0.0
01/01:00am 8.4 5.9 4.8 78 1.6 N 7 9 4 5 - - 0.0
01/12:30am 7.9 5.0 4.5 79 1.5 NNE 9 11 5 6 - - 0.0
01/12:00am 7.2 4.2 4.2 81 1.3 N 9 15 5 8 - - 0.0
 
Date/Time
EST
Temp
°C
App
Temp
°C
Dew
Point
°C
Rel
Hum
%
Delta-T
°C
Wind Press
QNH
hPa
Press
MSL
hPa
Rain since
9am
mm
Dir  Spd
km/h
Gust
km/h
Spd
kts
Gust
kts
30/11:30pm 6.4 4.7 4.2 86 0.9 NNW 2 6 1 3 - - 0.0
30/11:00pm 7.1 3.5 4.9 86 1.0 NNW 13 17 7 9 - - 0.0
30/10:30pm 7.0 4.4 4.3 83 1.2 NW 7 11 4 6 - - 0.0
30/10:00pm 7.8 4.7 5.4 85 1.1 NNW 11 13 6 7 - - 0.0
30/09:30pm 7.5 4.1 6.0 90 0.7 NNW 13 15 7 8 - - 0.0
30/09:00pm 7.4 3.7 4.5 82 1.3 NW 13 15 7 8 - - 0.0
30/08:30pm 7.5 4.6 4.5 81 1.3 NNW 9 11 5 6 - - 0.0
30/08:00pm 8.5 5.9 4.3 75 1.8 N 7 7 4 4 - - 0.0
30/07:30pm 8.7 5.7 5.8 82 1.3 NNW 11 13 6 7 - - 0.0
30/07:00pm 10.3 5.7 3.6 63 2.9 N 17 19 9 10 - - 0.0
30/06:30pm 10.9 6.6 3.2 59 3.4 N 15 17 8 9 - - 0.0
30/06:00pm 10.6 8.2 5.2 69 2.5 N 7 13 4 7 - - 0.0
30/05:30pm 10.3 9.1 6.6 78 1.7 NW 2 4 1 2 - - 0.0
30/05:00pm 10.7 9.5 6.6 76 1.9 E 2 4 1 2 - - 0.0
30/04:30pm 12.4 11.3 6.7 68 2.7 SW 2 6 1 3 - - 0.0
30/04:00pm 11.4 10.3 7.1 75 2.1 S 2 4 1 2 - - 0.0
30/03:30pm 10.6 9.9 6.9 78 1.8 CALM 0 0 0 0 - - 0.0
30/03:00pm 10.8 9.5 5.8 71 2.3 S 2 4 1 2 - - 0.0
30/02:30pm 11.0 8.8 5.5 69 2.5 SSW 6 6 3 3 - - 0.0
30/02:00pm 11.3 9.5 5.4 67 2.7 SSW 4 6 2 3 - - 0.0
30/01:30pm 11.3 9.5 5.4 67 2.7 WSW 4 6 2 3 - - 0.0
30/01:00pm 11.3 9.9 5.6 68 2.6 SW 2 4 1 2 - - 0.0
30/12:30pm 10.6 8.7 4.9 68 2.6 SW 4 6 2 3 - - 0.0
30/12:00pm 9.8 7.9 4.8 71 2.2 WSW 4 6 2 3 - - 0.0
30/11:30am 9.4 8.0 5.6 77 1.7 SW 2 7 1 4 - - 0.0
30/11:00am 9.8 8.5 5.8 76 1.8 NW 2 4 1 2 - - 0.0
30/10:30am 8.8 7.7 7.1 89 0.8 NNE 2 4 1 2 - - 0.0
30/10:00am 6.1 4.8 5.8 98 0.1 S 2 4 1 2 - - 0.0
30/09:30am 3.8 2.4 3.5 98 0.1 CALM 0 4 0 2 - - 0.0
30/09:00am 3.4 1.5 3.1 98 0.1 N 2 4 1 2 - - -
30/08:30am 2.8 1.2 2.5 98 0.1 CALM 0 0 0 0 - - -
30/08:00am 2.1 0.4 1.8 98 0.1 CALM 0 0 0 0 - - -
30/07:30am 1.2 -0.6 0.9 98 0.1 CALM 0 0 0 0 - - -
30/07:00am 1.5 -0.7 1.2 98 0.1 S 2 2 1 1 - - -
30/06:30am 1.6 -0.9 1.3 98 0.1 SSE 4 6 2 3 - - -
30/06:00am 2.2 0.1 1.9 98 0.1 S 2 4 1 2 - - -
30/05:30am 2.4 0.4 2.1 98 0.1 S 2 4 1 2 - - -
30/05:00am 2.1 0.4 1.8 98 0.1 CALM 0 0 0 0 - - -
30/04:30am 2.7 0.3 2.4 98 0.1 SE 4 4 2 2 - - -
30/04:00am 3.1 0.8 2.8 98 0.1 SSW 4 4 2 2 - - -
30/03:30am 3.2 0.9 2.9 98 0.1 WSW 4 4 2 2 - - -
30/03:00am 3.7 2.3 3.4 98 0.1 CALM 0 0 0 0 - - 0.0
30/02:30am 3.9 2.1 3.6 98 0.1 S 2 4 1 2 - - -
30/02:00am 4.2 2.5 3.9 98 0.1 S 2 2 1 1 - - -
30/01:30am 4.3 2.6 4.0 98 0.1 S 2 2 1 1 - - -
30/01:00am 4.8 3.6 4.5 98 0.1 CALM 0 0 0 0 - - -
30/12:30am 5.2 4.1 4.9 98 0.1 CALM 0 0 0 0 - - -
30/12:00am 5.2 4.1 4.9 98 0.1 CALM 0 0 0 0 - - -
 
Date/Time
EST
Temp
°C
App
Temp
°C
Dew
Point
°C
Rel
Hum
%
Delta-T
°C
Wind Press
QNH
hPa
Press
MSL
hPa
Rain since
9am
mm
Dir  Spd
km/h
Gust
km/h
Spd
kts
Gust
kts
29/11:30pm 5.3 4.2 5.0 98 0.1 CALM 0 0 0 0 - - -
29/11:00pm 6.0 5.0 5.7 98 0.1 CALM 0 2 0 1 - - -
29/10:30pm 6.3 5.0 5.9 97 0.2 SSE 2 2 1 1 - - -
29/10:00pm 6.6 5.0 6.3 98 0.1 SSE 4 4 2 2 - - -
29/09:30pm 6.9 5.4 6.6 98 0.1 SSE 4 4 2 2 - - -
29/09:00pm 7.4 6.7 7.1 98 0.1 CALM 0 0 0 0 - - 0.0
29/08:30pm 7.6 7.0 7.3 98 0.1 CALM 0 0 0 0 - - -
29/08:00pm 8.0 7.4 7.6 97 0.2 CALM 0 0 0 0 - - -
29/07:30pm 8.3 7.6 6.9 91 0.7 CALM 0 0 0 0 - - -
29/07:00pm 9.2 7.5 5.9 80 1.5 NW 4 6 2 3 - - -
29/06:30pm 9.5 7.7 5.3 75 1.9 WNW 4 6 2 3 - - -
29/06:00pm 10.5 8.7 5.5 71 2.3 WNW 4 6 2 3 - - -
29/05:30pm 11.2 9.8 5.7 69 2.5 NNW 2 2 1 1 - - -
29/05:00pm 12.9 11.5 7.4 69 2.7 NNW 4 4 2 2 - - -
29/04:30pm 15.2 14.0 8.2 63 3.5 NW 4 7 2 4 - - -
29/04:00pm 16.7 15.2 6.8 52 4.9 NW 4 6 2 3 - - -
29/03:30pm 17.2 15.0 5.5 46 5.7 NW 6 7 3 4 - - -
29/03:00pm 17.4 15.5 5.0 44 5.9 NW 4 6 2 3 - - -
29/02:30pm 17.1 15.2 5.1 45 5.7 NW 4 7 2 4 - - -
29/02:00pm 17.0 15.2 5.6 47 5.5 NW 4 4 2 2 - - -
29/01:30pm 16.7 15.4 6.2 50 5.1 NW 2 4 1 2 - - -
29/01:00pm 15.8 14.5 6.0 52 4.7 NNW 2 4 1 2 - - -
29/12:30pm 14.8 13.4 5.3 53 4.5 NE 2 4 1 2 - - 0.0
29/12:00pm 13.2 11.7 5.1 58 3.8 NW 2 6 1 3 - - 0.0
29/11:30am 12.0 10.9 5.0 62 3.2 CALM 0 2 0 1 - - 0.0
29/11:00am 10.5 8.6 4.9 68 2.5 NW 4 6 2 3 - - 0.0
29/10:30am 9.0 7.7 6.1 82 1.3 NNW 2 4 1 2 - - 0.0
29/10:00am 7.9 7.1 6.7 92 0.6 CALM 0 0 0 0 - - 0.0
29/09:30am 5.6 4.5 5.3 98 0.1 CALM 0 0 0 0 - - 0.0
29/09:00am 4.2 2.9 3.9 98 0.1 CALM 0 0 0 0 - - 0.0
29/08:30am 3.0 1.1 2.7 98 0.1 N 2 4 1 2 - - 0.0
29/08:00am 2.9 1.3 2.6 98 0.1 CALM 0 0 0 0 - - 0.0
29/07:30am 1.9 -0.2 1.6 98 0.1 ENE 2 4 1 2 - - 0.0
29/07:00am 2.4 0.7 2.1 98 0.1 CALM 0 0 0 0 - - 0.0
29/06:30am 2.3 0.6 2.0 98 0.1 CALM 0 0 0 0 - - 0.0
29/06:00am 2.4 0.7 2.1 98 0.1 CALM 0 0 0 0 - - 0.0
29/05:30am 2.9 1.3 2.6 98 0.1 CALM 0 0 0 0 - - 0.0
29/05:00am 2.2 0.5 1.9 98 0.1 CALM 0 0 0 0 - - 0.0
29/04:30am 2.6 1.0 2.3 98 0.1 CALM 0 0 0 0 - - 0.0
29/04:00am 2.8 1.2 2.5 98 0.1 CALM 0 0 0 0 - - 0.0
29/03:30am 2.6 1.0 2.3 98 0.1 CALM 0 0 0 0 - - 0.0
29/03:00am 3.1 1.6 2.8 98 0.1 CALM 0 0 0 0 - - 0.0
29/02:30am 3.1 1.2 2.8 98 0.1 SSE 2 4 1 2 - - 0.0
29/02:00am 3.5 1.7 3.2 98 0.1 SW 2 2 1 1 - - 0.0
29/01:30am 3.5 1.3 3.2 98 0.1 SW 4 4 2 2 - - 0.0
29/01:00am 3.9 2.1 3.6 98 0.1 SW 2 2 1 1 - - 0.0
29/12:30am 4.2 2.9 3.9 98 0.1 CALM 0 0 0 0 - - 0.0
29/12:00am 4.5 3.2 4.1 97 0.2 CALM 0 0 0 0 - - 0.0
 
Date/Time
EST
Temp
°C
App
Temp
°C
Dew
Point
°C
Rel
Hum
%
Delta-T
°C
Wind Press
QNH
hPa
Press
MSL
hPa
Rain since
9am
mm
Dir  Spd
km/h
Gust
km/h
Spd
kts
Gust
kts
28/11:30pm 4.8 3.2 4.4 97 0.2 SW 2 2 1 1 - - 0.0
28/11:00pm 5.0 3.0 4.3 95 0.3 SW 4 4 2 2 - - 0.0
28/10:30pm 5.6 3.6 4.6 93 0.4 ESE 4 6 2 3 - - 0.0
28/10:00pm 5.9 4.2 4.2 89 0.7 SE 2 6 1 3 - - 0.0
28/09:30pm 6.1 3.9 3.3 82 1.2 SSW 4 6 2 3 - - 0.0
28/09:00pm 6.8 4.7 3.9 82 1.2 S 4 6 2 3 - - 0.0
28/08:30pm 7.6 5.6 4.2 79 1.5 S 4 6 2 3 - - 0.0
28/08:00pm 8.4 7.1 4.0 74 1.9 CALM 0 0 0 0 - - 0.0
28/07:30pm 8.8 7.0 3.4 69 2.3 WSW 2 4 1 2 - - 0.0
28/07:00pm 9.3 6.8 3.7 68 2.4 WSW 6 7 3 4 - - 0.0
28/06:30pm 9.7 8.1 4.5 70 2.3 SW 2 2 1 1 - - 0.0
28/06:00pm 10.1 7.7 4.5 68 2.5 SW 6 6 3 3 - - 0.0
28/05:30pm 11.1 8.8 4.6 64 2.9 SW 6 7 3 4 - - 0.0
28/05:00pm 12.6 9.3 2.7 51 4.3 SW 9 11 5 6 - - 0.0
28/04:30pm 14.4 10.8 3.2 47 5.0 SSW 11 17 6 9 - - 0.0
28/04:00pm 15.2 11.2 3.0 44 5.5 SSW 13 22 7 12 - - 0.0
28/03:30pm 15.8 11.9 3.6 44 5.6 SSW 13 20 7 11 - - 0.0
28/03:00pm 16.3 12.8 3.7 43 5.8 SW 11 19 6 10 - - 0.0
28/02:30pm 16.5 13.4 3.6 42 6.0 WSW 9 15 5 8 - - 0.0
28/02:00pm 16.6 12.8 3.7 42 6.0 SSW 13 20 7 11 - - 0.0
28/01:30pm 16.3 12.5 3.7 43 5.8 SW 13 20 7 11 - - 0.0
28/01:00pm 15.9 12.4 3.4 43 5.7 SW 11 19 6 10 - - 0.0
28/12:30pm 15.5 11.2 3.3 44 5.6 WSW 15 20 8 11 - - 0.0
28/12:00pm 15.5 11.2 3.3 44 5.6 SW 15 24 8 13 - - 0.0
28/11:30am 15.0 10.5 4.1 48 5.0 WSW 17 28 9 15 - - 0.0
28/11:00am 14.4 8.8 3.2 47 5.0 SW 22 30 12 16 - - 0.0
28/10:30am 14.1 8.9 2.7 46 5.1 SSW 19 28 10 15 - - 0.0
28/10:00am 13.8 9.3 2.4 46 5.0 SSW 15 22 8 12 - - 0.0
28/09:30am 13.1 9.7 2.1 47 4.8 SSW 9 20 5 11 - - 0.0

Other Formats:

Comma delimited format used in spreadsheet applications
http://www.bom.gov.au/fwo/IDN60801/IDN60801.94763.axf

JavaScript Object Notation format (JSON) in row-major order
http://www.bom.gov.au/fwo/IDN60801/IDN60801.94763.json